Time;durP1;ratioP1;P1;durP2;ratioP2;P2;SDS_P1;SDS_P2;PMS_P1;PMS_P2;Temp;Humidity;BMP_temperature;BMP_pressure;BME280_temperature;BME280_humidity;BME280_pressure;Samples;Min_cycle;Max_cycle;Signal;HPM_P1;HPM_P2
2022/02/05 00:05:53;;;;;;;5.07;2.97;;;;;;;5.63;82.07;95318.69;4990558;28;20042;-74
2022/02/05 00:43:10;;;;;;;6.93;2.97;;;;;;;5.60;82.22;95345.25;4990240;28;20042;-74
2022/02/05 00:45:40;;;;;;;4.88;2.40;;;;;;;5.67;82.41;95351.09;4997421;28;20046;-74
2022/02/05 00:48:06;;;;;;;5.38;2.65;;;;;;;5.73;82.25;95355.38;4998611;28;20042;-74
2022/02/05 00:50:36;;;;;;;5.18;2.35;;;;;;;5.69;82.24;95350.88;5003258;28;20050;-74
2022/02/05 00:53:08;;;;;;;5.68;2.50;;;;;;;5.66;82.34;95359.97;4991177;28;20589;-74
2022/02/05 00:55:37;;;;;;;5.95;2.38;;;;;;;5.66;83.19;95367.81;4987841;28;20050;-74
2022/02/05 00:58:05;;;;;;;5.10;2.28;;;;;;;5.61;83.91;95378.19;4990084;28;20684;-74
2022/02/05 01:00:36;;;;;;;11.95;2.40;;;;;;;5.69;84.17;95374.38;4994359;28;20508;-74
2022/02/05 01:03:02;;;;;;;5.72;2.50;;;;;;;5.64;84.46;95377.69;5009328;28;20057;-74
2022/02/05 01:05:28;;;;;;;5.25;2.85;;;;;;;5.59;84.36;95380.25;4989777;28;20043;-74
2022/02/05 01:07:57;;;;;;;4.40;2.33;;;;;;;5.59;84.12;95375.03;4997826;28;20508;-74
2022/02/05 01:10:27;;;;;;;5.05;2.40;;;;;;;5.51;84.67;95404.91;4989678;28;20046;-74
2022/02/05 01:13:01;;;;;;;8.65;2.58;;;;;;;5.46;85.50;95432.78;4987385;28;20046;-74
2022/02/05 01:15:34;;;;;;;2.90;1.60;;;;;;;4.75;86.22;95477.53;4990414;28;20042;-74
2022/02/05 01:18:04;;;;;;;2.10;1.08;;;;;;;3.33;89.08;95486.25;4990257;28;20046;-73
2022/02/05 01:22:59;;;;;;;2.10;1.00;;;;;;;2.87;94.13;95505.91;4998829;28;20045;-73
2022/02/05 01:25:30;;;;;;;1.92;1.23;;;;;;;2.45;95.62;95511.81;4990381;28;20058;-74
2022/02/05 01:28:03;;;;;;;1.95;1.25;;;;;;;2.26;97.01;95518.84;4994230;28;20080;-74
2022/02/05 01:30:33;;;;;;;1.33;1.10;;;;;;;2.21;97.63;95524.69;4981876;28;20112;-73
2022/02/05 01:52:57;;;;;;;1.77;1.20;;;;;;;2.11;100.00;95542.53;4997069;28;20477;-72
2022/02/05 01:57:55;;;;;;;2.30;1.30;;;;;;;2.17;100.00;95572.84;4984641;28;20045;-72
2022/02/05 02:06:11;;;;;;;2.65;1.52;;;;;;;2.14;100.00;95593.25;4986665;28;20049;-72
2022/02/05 02:11:35;;;;;;;2.40;1.67;;;;;;;1.97;100.00;95593.00;4989187;28;20049;-72
2022/02/05 02:14:28;;;;;;;4.20;1.65;;;;;;;1.95;100.00;95589.81;4990140;28;20045;-72
2022/02/05 02:21:54;;;;;;;2.45;1.80;;;;;;;2.01;100.00;95609.72;4991499;28;20043;-72
2022/02/05 02:24:54;;;;;;;1.87;1.47;;;;;;;2.00;100.00;95613.34;4990156;28;20097;-72
2022/02/05 02:32:12;;;;;;;2.90;1.67;;;;;;;1.93;100.00;95633.38;4989233;28;20046;-72
2022/02/05 02:34:43;;;;;;;4.07;1.80;;;;;;;1.92;100.00;95631.78;4989771;28;20042;-72
2022/02/05 02:37:17;;;;;;;2.05;1.20;;;;;;;1.88;96.32;95642.59;4986765;28;20053;-72
2022/02/05 02:40:05;;;;;;;2.22;1.20;;;;;;;1.92;94.89;95642.16;4991213;28;20499;-72
2022/02/05 02:42:29;;;;;;;2.00;1.00;;;;;;;1.84;92.68;95641.41;4994155;28;20042;-72
2022/02/05 02:44:54;;;;;;;1.48;1.10;;;;;;;1.87;92.73;95640.97;4991971;28;20523;-72
2022/02/05 02:47:20;;;;;;;2.00;0.90;;;;;;;1.80;91.68;95642.84;4990119;28;20034;-73
2022/02/05 02:57:52;;;;;;;4.80;1.00;;;;;;;1.73;87.90;95662.84;4988577;28;20564;-72
2022/02/05 03:00:18;;;;;;;1.30;0.98;;;;;;;1.69;88.98;95669.44;4992703;28;20047;-72
2022/02/05 03:02:44;;;;;;;1.27;0.93;;;;;;;1.71;87.14;95683.00;5002126;28;20108;-72
2022/02/05 03:05:09;;;;;;;1.35;1.00;;;;;;;1.62;86.24;95690.22;5006468;28;20108;-72
2022/02/05 03:07:35;;;;;;;0.98;0.80;;;;;;;1.60;88.60;95686.28;4989341;28;20046;-72
2022/02/05 03:10:00;;;;;;;2.05;1.27;;;;;;;1.62;88.21;95694.63;4996287;28;20045;-73
2022/02/05 03:12:26;;;;;;;4.20;1.40;;;;;;;1.63;87.60;95698.81;4989102;28;20547;-72
2022/02/05 03:14:53;;;;;;;2.10;0.90;;;;;;;1.65;85.92;95704.59;4988701;28;20064;-72
2022/02/05 03:17:23;;;;;;;2.17;1.10;;;;;;;1.62;87.47;95715.38;4988092;28;20046;-72
2022/02/05 03:19:51;;;;;;;1.40;1.10;;;;;;;1.60;86.59;95712.22;4993082;28;20116;-72
2022/02/05 03:22:19;;;;;;;3.25;1.25;;;;;;;1.49;86.93;95716.25;4996915;28;20050;-72
2022/02/05 03:24:45;;;;;;;1.52;0.95;;;;;;;1.59;86.79;95715.81;4988817;28;20439;-72
2022/02/05 03:27:13;;;;;;;1.75;1.00;;;;;;;1.50;86.94;95713.44;4987793;28;20069;-72
2022/02/05 03:29:42;;;;;;;2.00;1.13;;;;;;;1.51;88.16;95725.41;5001562;28;20519;-72
2022/02/05 03:32:08;;;;;;;1.38;1.05;;;;;;;1.48;87.37;95731.03;4988363;28;20039;-72
2022/02/05 03:34:33;;;;;;;1.98;1.30;;;;;;;1.37;88.39;95739.44;4989500;28;20113;-73
2022/02/05 03:37:00;;;;;;;1.27;1.15;;;;;;;1.52;87.75;95747.78;4987696;28;20046;-72
2022/02/05 03:39:26;;;;;;;1.38;1.13;;;;;;;1.55;89.66;95762.91;4988360;28;20034;-72
2022/02/05 03:41:52;;;;;;;1.85;1.40;;;;;;;1.43;88.23;95754.16;4997246;28;20049;-73
2022/02/05 03:44:18;;;;;;;2.40;1.20;;;;;;;1.46;87.87;95769.31;4989031;28;20092;-73
2022/02/05 03:46:43;;;;;;;2.00;1.23;;;;;;;1.50;88.77;95770.50;4987945;28;20047;-72
2022/02/05 03:49:11;;;;;;;2.10;1.27;;;;;;;1.32;89.20;95767.78;4985872;28;20057;-72
2022/02/05 03:51:37;;;;;;;0.95;0.88;;;;;;;1.31;89.18;95781.75;4988606;28;20050;-72
2022/02/05 03:54:03;;;;;;;2.30;1.30;;;;;;;1.25;89.63;95785.13;4989347;28;20389;-72
2022/02/05 03:56:29;;;;;;;2.40;1.00;;;;;;;1.16;89.70;95787.94;4987694;28;20034;-73
2022/02/05 03:58:54;;;;;;;3.15;1.25;;;;;;;1.25;89.90;95800.69;4990016;28;20046;-73
2022/02/05 04:01:20;;;;;;;1.65;1.23;;;;;;;1.18;88.79;95804.09;4992739;28;20101;-73
2022/02/05 04:03:45;;;;;;;1.35;1.15;;;;;;;1.15;89.79;95809.69;4999002;28;20038;-73
2022/02/05 04:06:11;;;;;;;3.65;1.48;;;;;;;1.07;89.02;95807.31;4991696;28;20033;-73
2022/02/05 04:08:37;;;;;;;3.08;1.48;;;;;;;1.12;89.98;95815.28;5000713;28;20099;-73
2022/02/05 04:11:11;;;;;;;3.50;1.67;;;;;;;1.12;89.57;95824.84;5002024;28;20578;-73
2022/02/05 04:16:24;;;;;;;1.70;1.43;;;;;;;1.10;89.95;95830.25;4989786;28;20492;-73
2022/02/05 04:18:56;;;;;;;2.53;1.58;;;;;;;1.11;88.84;95833.66;4991431;28;20331;-73
2022/02/05 04:21:23;;;;;;;6.85;1.60;;;;;;;1.02;88.83;95830.44;4992243;28;20046;-73
2022/02/05 04:23:50;;;;;;;1.80;1.02;;;;;;;0.94;89.03;95838.44;5004010;28;20042;-73
2022/02/05 04:26:17;;;;;;;5.32;1.50;;;;;;;0.86;89.70;95842.81;4985448;28;20038;-73
2022/02/05 04:28:43;;;;;;;2.03;1.38;;;;;;;0.91;89.58;95838.84;4997259;28;20488;-73
2022/02/05 04:31:09;;;;;;;3.17;1.50;;;;;;;0.85;89.51;95851.59;5000488;28;20054;-73
2022/02/05 04:33:35;;;;;;;3.45;1.50;;;;;;;0.82;88.45;95864.94;4999964;28;20471;-73
2022/02/05 04:36:01;;;;;;;2.05;1.38;;;;;;;0.84;88.98;95872.50;4990117;28;20038;-72
2022/02/05 04:38:27;;;;;;;2.83;1.50;;;;;;;0.86;88.19;95878.28;4973291;28;20121;-73
2022/02/05 04:41:03;;;;;;;2.45;1.45;;;;;;;0.76;88.02;95872.69;4987235;28;20045;-73
2022/02/05 05:07:46;;;;;;;3.85;1.48;;;;;;;0.60;90.37;95904.97;4990433;28;20050;-73
2022/02/05 05:09:54;;;;;;;3.22;1.70;;;;;;;0.54;90.20;95905.75;4989973;28;20492;-73
2022/02/05 05:20:17;;;;;;;2.28;1.48;;;;;;;0.28;92.41;95912.44;4990703;28;20409;-73
2022/02/05 05:22:43;;;;;;;2.60;1.58;;;;;;;0.25;93.35;95924.00;4995690;28;20064;-73
2022/02/05 05:25:08;;;;;;;3.88;1.77;;;;;;;0.13;94.39;95931.50;4991402;28;20038;-73
2022/02/05 05:27:34;;;;;;;4.28;1.90;;;;;;;0.24;93.78;95931.94;4990384;28;20077;-73
2022/02/05 05:30:00;;;;;;;2.95;1.60;;;;;;;0.15;94.27;95939.88;4990991;28;20057;-72
2022/02/05 05:32:26;;;;;;;5.57;1.80;;;;;;;0.25;94.46;95943.91;4992685;28;20061;-73
2022/02/05 05:34:51;;;;;;;3.05;1.70;;;;;;;-0.01;96.19;95945.38;5004431;28;20053;-73
2022/02/05 05:37:19;;;;;;;3.08;1.80;;;;;;;-0.01;96.53;95950.56;5010711;28;20042;-73
2022/02/05 05:39:47;;;;;;;5.55;2.17;;;;;;;-0.19;96.76;95944.09;4992835;28;20100;-73
2022/02/05 05:42:17;;;;;;;5.05;2.05;;;;;;;-0.09;97.62;95953.28;4996880;28;20048;-73
2022/02/05 05:52:22;;;;;;;3.28;1.95;;;;;;;-0.42;99.65;95943.53;4990700;28;20138;-73
2022/02/05 05:54:48;;;;;;;4.63;2.20;;;;;;;-0.36;100.00;95937.63;4989374;28;20416;-73
2022/02/05 05:57:13;;;;;;;3.55;2.00;;;;;;;-0.18;99.27;95937.91;4989926;28;20451;-74
2022/02/05 05:59:39;;;;;;;5.85;2.50;;;;;;;-0.36;100.00;95942.78;4989629;28;20050;-73
2022/02/05 06:02:09;;;;;;;8.57;2.40;;;;;;;-0.18;98.99;95950.84;4994548;28;20042;-73
2022/02/05 06:04:35;;;;;;;7.20;2.63;;;;;;;-0.22;99.21;95949.63;4993629;28;20050;-73
2022/02/05 06:07:00;;;;;;;5.85;2.25;;;;;;;-0.21;99.01;95953.81;4990982;28;20084;-73
2022/02/05 06:09:26;;;;;;;5.15;2.50;;;;;;;-0.30;99.17;95962.75;4997137;28;20038;-73
2022/02/05 06:11:52;;;;;;;7.63;2.80;;;;;;;-0.29;99.58;95959.13;4994189;28;20104;-73
2022/02/05 06:14:25;;;;;;;3.92;2.30;;;;;;;-0.35;98.58;95965.09;4996629;28;20397;-73
2022/02/05 06:16:57;;;;;;;5.03;2.05;;;;;;;-0.34;98.35;95969.28;4989153;28;20046;-73
2022/02/05 06:19:22;;;;;;;4.32;2.47;;;;;;;-0.30;97.69;95973.09;4979744;28;20441;-72
2022/02/05 06:21:48;;;;;;;2.88;2.00;;;;;;;-0.30;96.68;95975.66;4990973;28;20034;-73
2022/02/05 06:24:14;;;;;;;5.38;1.73;;;;;;;-0.41;96.64;95978.78;4995078;28;20046;-73
2022/02/05 06:26:39;;;;;;;4.78;2.17;;;;;;;-0.37;95.90;95980.78;5003830;28;20046;-73
2022/02/05 06:29:05;;;;;;;4.40;2.20;;;;;;;-0.25;95.30;95981.06;5003035;28;20070;-73
2022/02/05 06:31:31;;;;;;;2.60;1.70;;;;;;;-0.23;94.58;95984.28;4991709;28;20085;-71
2022/02/05 06:33:56;;;;;;;5.95;1.95;;;;;;;-0.31;95.11;95987.00;4988073;28;20573;-73
2022/02/05 06:36:22;;;;;;;3.60;1.88;;;;;;;-0.41;95.95;95996.88;4997651;28;20100;-73
2022/02/05 06:38:48;;;;;;;3.45;2.03;;;;;;;-0.51;96.75;95996.41;5001152;28;20045;-73
2022/02/05 06:41:15;;;;;;;4.70;2.00;;;;;;;-0.54;97.33;96003.53;4988281;28;20046;-73
2022/02/05 06:43:40;;;;;;;3.72;1.98;;;;;;;-0.57;97.37;96006.50;4989628;28;20042;-73
2022/02/05 06:46:06;;;;;;;6.32;2.10;;;;;;;-0.58;98.12;96012.63;4989352;28;20073;-73
2022/02/05 06:48:32;;;;;;;5.60;2.28;;;;;;;-0.61;98.53;96018.19;4989146;28;20038;-73
2022/02/05 06:50:57;;;;;;;5.45;2.22;;;;;;;-0.65;99.15;96022.13;4995963;28;20038;-73
2022/02/05 06:53:23;;;;;;;4.50;2.28;;;;;;;-0.66;99.29;96025.72;4989356;28;20041;-73
2022/02/05 06:55:49;;;;;;;4.45;2.40;;;;;;;-0.58;99.14;96028.16;4989058;28;20038;-73
2022/02/05 06:58:15;;;;;;;7.38;2.42;;;;;;;-0.58;98.58;96028.16;4987122;28;20532;-73
2022/02/05 07:00:41;;;;;;;6.18;2.47;;;;;;;-0.64;98.38;96023.72;4997636;28;20042;-73
2022/02/05 07:03:08;;;;;;;3.50;2.20;;;;;;;-0.63;99.20;96025.34;4988354;28;20045;-73
2022/02/05 07:05:33;;;;;;;4.00;2.30;;;;;;;-0.49;97.49;96020.28;4988188;28;20039;-73
2022/02/05 07:07:59;;;;;;;4.32;2.40;;;;;;;-0.47;98.07;96028.66;4989781;28;20058;-73
2022/02/05 07:10:25;;;;;;;5.15;2.42;;;;;;;-0.38;96.99;96038.66;4986505;28;20101;-73
2022/02/05 07:15:26;;;;;;;4.82;2.38;;;;;;;-0.34;96.15;96049.44;4988274;28;20042;-73
2022/02/05 07:18:09;;;;;;;6.35;2.40;;;;;;;-0.25;95.11;96043.13;4988398;28;20046;-73
2022/02/05 07:20:43;;;;;;;3.70;1.98;;;;;;;-0.13;93.86;96055.56;4991440;28;20440;-72
2022/02/05 07:31:17;;;;;;;6.23;2.27;;;;;;;0.05;91.51;96068.81;5000375;28;20076;-73
2022/02/05 07:33:43;;;;;;;7.63;2.65;;;;;;;-0.04;92.40;96064.78;4998854;28;20785;-73
2022/02/05 07:36:11;;;;;;;4.47;2.30;;;;;;;-0.08;91.88;96066.16;4989988;28;20046;-73
2022/02/05 07:38:36;;;;;;;8.00;2.25;;;;;;;0.10;91.46;96066.47;4992865;28;20108;-73
2022/02/05 07:41:02;;;;;;;3.47;2.03;;;;;;;0.12;90.97;96069.66;4995031;28;20700;-73
2022/02/05 07:43:29;;;;;;;3.53;2.03;;;;;;;0.05;92.18;96078.38;4992741;28;20164;-73
2022/02/05 07:45:56;;;;;;;4.80;2.10;;;;;;;0.15;92.23;96084.03;4993419;28;20057;-73
2022/02/05 07:48:21;;;;;;;4.55;2.40;;;;;;;0.19;91.45;96085.25;4996869;28;20042;-73
2022/02/05 07:50:47;;;;;;;4.47;2.28;;;;;;;0.28;91.83;96088.50;5004338;28;20392;-73
2022/02/05 07:53:13;;;;;;;5.05;2.40;;;;;;;0.23;91.44;96093.44;4997054;28;20041;-73
2022/02/05 07:55:38;;;;;;;5.10;2.25;;;;;;;0.37;90.75;96097.69;4991705;28;20492;-73
2022/02/05 07:58:04;;;;;;;6.10;2.40;;;;;;;0.50;90.78;96102.16;4991198;28;20050;-73
2022/02/05 08:00:29;;;;;;;3.28;2.00;;;;;;;0.48;90.47;96102.34;4992499;28;20046;-73
2022/02/05 08:02:57;;;;;;;6.78;2.40;;;;;;;0.68;90.78;96093.88;4992290;28;20093;-73
2022/02/05 08:05:23;;;;;;;5.97;2.22;;;;;;;0.66;90.53;96085.50;4992494;28;20043;-73
2022/02/05 08:07:50;;;;;;;3.85;2.35;;;;;;;0.89;88.64;96087.81;4990859;28;20492;-73
2022/02/05 08:10:17;;;;;;;5.30;2.45;;;;;;;1.07;86.22;96097.63;4990957;28;20170;-74
2022/02/05 08:12:49;;;;;;;6.50;2.90;;;;;;;1.25;86.68;96104.06;4992222;28;20050;-73
2022/02/05 08:15:18;;;;;;;3.90;1.80;;;;;;;1.18;84.46;96110.03;4991515;28;20057;-73
2022/02/05 08:17:43;;;;;;;5.97;2.30;;;;;;;1.12;84.91;96105.63;4990622;28;20042;-73
2022/02/05 08:20:09;;;;;;;6.35;2.30;;;;;;;1.02;86.10;96112.94;4998514;28;20486;-74
2022/02/05 08:22:35;;;;;;;4.93;2.20;;;;;;;1.02;84.12;96118.13;4992726;28;20042;-74
2022/02/05 08:25:01;;;;;;;3.40;2.10;;;;;;;1.12;84.90;96120.38;4988702;28;20042;-73
2022/02/05 08:27:26;;;;;;;4.20;2.25;;;;;;;1.25;83.26;96129.97;4991385;28;20076;-76
2022/02/05 08:29:56;;;;;;;4.57;2.30;;;;;;;1.60;82.29;96140.25;4986682;28;20050;-75
2022/02/05 08:32:24;;;;;;;6.00;2.33;;;;;;;1.70;79.90;96138.09;4989549;28;20048;-74
2022/02/05 08:34:50;;;;;;;4.13;2.10;;;;;;;1.66;80.50;96131.69;4986472;28;20042;-71
2022/02/05 08:37:16;;;;;;;3.63;1.75;;;;;;;1.64;80.88;96149.22;4990344;28;20050;-71
2022/02/05 08:39:42;;;;;;;3.90;1.83;;;;;;;1.88;79.02;96137.50;4985151;28;20046;-72
2022/02/05 08:42:08;;;;;;;8.93;2.00;;;;;;;1.81;78.17;96140.09;4987638;28;20034;-71
2022/02/05 08:44:34;;;;;;;3.90;1.90;;;;;;;1.87;78.94;96144.50;4991251;28;20086;-72
2022/02/05 08:47:00;;;;;;;3.58;1.55;;;;;;;1.93;76.85;96136.91;4991259;28;20042;-71
2022/02/05 08:49:28;;;;;;;6.35;1.80;;;;;;;1.80;78.37;96154.06;4991233;28;20125;-71
2022/02/05 08:51:57;;;;;;;2.72;1.55;;;;;;;1.69;76.92;96152.03;4991942;28;20047;-71
2022/02/05 08:54:23;;;;;;;3.72;1.92;;;;;;;1.69;79.59;96157.22;4991266;28;20125;-71
2022/02/05 08:56:52;;;;;;;4.72;1.90;;;;;;;1.81;78.66;96160.84;4990830;28;20050;-72
2022/02/05 08:59:18;;;;;;;6.68;2.15;;;;;;;1.97;76.97;96153.66;4991642;28;20034;-72
2022/02/05 09:02:01;;;;;;;4.80;1.73;;;;;;;1.88;76.53;96150.47;4991040;28;20065;-71
2022/02/05 09:04:46;;;;;;;3.72;1.60;;;;;;;1.93;76.75;96152.50;5005950;28;20038;-72
2022/02/05 09:07:12;;;;;;;7.53;1.73;;;;;;;1.82;77.68;96156.47;4987414;28;20571;-73
2022/02/05 09:09:55;;;;;;;4.72;1.67;;;;;;;1.94;77.04;96154.06;5003591;28;20046;-73
2022/02/05 09:14:59;;;;;;;5.00;2.00;;;;;;;2.12;76.34;96162.06;4991197;28;20045;-71
2022/02/05 09:17:25;;;;;;;3.00;1.80;;;;;;;2.16;77.09;96155.47;4990910;28;20046;-72
2022/02/05 09:19:51;;;;;;;5.55;1.90;;;;;;;2.22;75.52;96166.88;4979023;28;20038;-75
2022/02/05 09:22:17;;;;;;;4.80;1.88;;;;;;;2.29;74.82;96159.09;4985287;28;20126;-76
2022/02/05 09:24:43;;;;;;;4.68;1.88;;;;;;;2.51;75.28;96168.25;4990972;28;20532;-72
2022/02/05 09:27:12;;;;;;;2.95;1.80;;;;;;;2.55;73.21;96161.66;4990558;28;20493;-71
2022/02/05 09:30:04;;;;;;;4.50;2.00;;;;;;;3.05;72.75;96160.34;4988442;28;20050;-73
2022/02/05 09:32:27;;;;;;;7.25;1.70;;;;;;;3.07;71.26;96147.94;4990218;28;20058;-73
2022/02/05 09:34:53;;;;;;;3.28;1.75;;;;;;;3.23;72.08;96157.88;4990697;28;20054;-73
2022/02/05 09:37:19;;;;;;;10.80;1.85;;;;;;;3.21;68.73;96144.28;4990069;28;20508;-76
2022/02/05 09:39:45;;;;;;;2.38;1.85;;;;;;;3.23;66.52;96152.69;4989677;28;20427;-77
2022/02/05 09:42:12;;;;;;;2.40;1.55;;;;;;;3.37;64.50;96153.41;4989343;28;20034;-73
2022/02/05 09:44:38;;;;;;;4.43;1.60;;;;;;;3.55;67.50;96149.31;4990232;28;20038;-73
2022/02/05 09:47:04;;;;;;;7.97;1.88;;;;;;;3.74;67.08;96164.03;4996276;28;20049;-73
2022/02/05 09:49:29;;;;;;;5.97;1.80;;;;;;;3.78;68.32;96161.81;4988496;28;20046;-74
2022/02/05 09:52:13;;;;;;;5.60;1.90;;;;;;;3.79;68.75;96160.78;4990471;28;20783;-74
2022/02/05 09:54:42;;;;;;;4.07;1.53;;;;;;;3.94;65.97;96153.47;4990697;28;20054;-74
2022/02/05 09:57:08;;;;;;;5.03;2.13;;;;;;;4.25;66.48;96164.88;4989826;28;20114;-72
2022/02/05 09:59:46;;;;;;;6.65;1.85;;;;;;;4.14;62.70;96157.75;4990091;28;20125;-72
2022/02/05 10:02:20;;;;;;;3.38;1.67;;;;;;;4.32;62.81;96160.41;4991251;28;20043;-73
2022/02/05 10:04:55;;;;;;;2.60;1.50;;;;;;;5.86;58.38;96160.50;4984800;28;20070;-73
2022/02/05 10:07:21;;;;;;;5.47;2.00;;;;;;;6.86;56.97;96163.34;4990899;28;20057;-74
2022/02/05 10:10:02;;;;;;;2.58;1.48;;;;;;;6.36;57.31;96162.78;4989300;28;20043;-72
2022/02/05 10:12:28;;;;;;;5.85;1.70;;;;;;;6.84;54.54;96165.38;4986007;28;20057;-72
2022/02/05 10:14:56;;;;;;;6.57;1.90;;;;;;;6.92;53.57;96160.63;4985374;28;20066;-71
2022/02/05 10:17:37;;;;;;;6.78;1.77;;;;;;;7.43;50.84;96153.00;4989072;28;20038;-73
2022/02/05 10:20:05;;;;;;;3.88;1.50;;;;;;;7.46;49.68;96155.13;4990062;28;20046;-73
2022/02/05 10:22:38;;;;;;;4.55;1.60;;;;;;;7.75;50.12;96152.50;4990664;28;20050;-73
2022/02/05 10:25:18;;;;;;;8.18;2.13;;;;;;;6.98;50.66;96148.41;4990641;28;20100;-73
2022/02/05 10:27:45;;;;;;;3.55;1.60;;;;;;;7.60;49.91;96152.22;4990849;28;20070;-72
2022/02/05 10:30:23;;;;;;;4.53;1.65;;;;;;;6.44;51.12;96163.47;4983582;28;20158;-72
2022/02/05 10:33:08;;;;;;;5.63;1.55;;;;;;;7.50;47.83;96154.66;4990332;28;20118;-73
2022/02/05 10:38:35;;;;;;;2.65;1.40;;;;;;;6.89;49.67;96155.03;4990219;28;20077;-73
2022/02/05 10:43:51;;;;;;;2.83;1.50;;;;;;;6.38;50.50;96150.28;4990283;28;20137;-73
2022/02/05 10:46:17;;;;;;;5.95;1.70;;;;;;;5.71;55.14;96153.84;4990153;28;20049;-74
2022/02/05 10:48:42;;;;;;;3.78;1.50;;;;;;;6.38;52.52;96150.28;4990641;28;20042;-73
2022/02/05 10:51:08;;;;;;;4.20;1.40;;;;;;;6.03;50.72;96156.28;4989975;28;20077;-73
2022/02/05 10:53:43;;;;;;;4.90;1.50;;;;;;;6.00;51.71;96159.31;4992106;28;20042;-74
2022/02/05 11:07:04;;;;;;;2.47;1.40;;;;;;;9.43;43.20;96145.75;4990910;28;20046;-73
2022/02/05 11:09:30;;;;;;;2.03;1.10;;;;;;;9.42;43.27;96147.56;4994658;28;20050;-73
2022/02/05 11:20:22;;;;;;;3.17;1.40;;;;;;;10.38;42.23;96127.72;4993407;28;20045;-73
2022/02/05 11:23:09;;;;;;;5.30;1.60;;;;;;;10.96;40.22;96129.66;4994473;28;20536;-72
2022/02/05 11:25:40;;;;;;;3.13;1.55;;;;;;;10.08;40.33;96132.72;4993623;28;20134;-73
2022/02/05 11:28:07;;;;;;;3.95;1.40;;;;;;;10.16;41.62;96122.53;4995299;28;20050;-72
2022/02/05 11:30:43;;;;;;;3.33;1.67;;;;;;;10.49;41.61;96123.31;4994615;28;20050;-74
2022/02/05 11:33:37;;;;;;;1.67;1.40;;;;;;;9.86;40.70;96115.97;5002464;28;20034;-74
2022/02/05 11:38:45;;;;;;;3.13;1.60;;;;;;;10.31;42.27;96118.44;4992575;28;20046;-75
2022/02/05 11:41:25;;;;;;;3.90;1.67;;;;;;;9.62;40.75;96114.69;4991545;28;20034;-74
2022/02/05 11:44:39;;;;;;;6.35;1.70;;;;;;;11.48;38.71;96122.72;4987198;28;20038;-74
2022/02/05 11:47:07;;;;;;;3.47;1.30;;;;;;;11.99;37.11;96123.91;4989863;28;20141;-74
2022/02/05 11:49:51;;;;;;;3.30;1.40;;;;;;;11.76;37.63;96118.03;4987554;28;20057;-76
2022/02/05 11:52:35;;;;;;;3.60;1.48;;;;;;;11.18;38.72;96113.66;5001366;28;20058;-76
2022/02/05 11:55:11;;;;;;;1.30;1.20;;;;;;;11.54;36.86;96116.41;4988130;28;20488;-75
2022/02/05 11:57:46;;;;;;;2.05;1.25;;;;;;;10.55;37.36;96117.03;4992896;28;20504;-75
2022/02/05 12:00:18;;;;;;;2.75;1.30;;;;;;;10.97;38.15;96117.28;4992439;28;20039;-75
2022/02/05 12:02:52;;;;;;;3.35;1.40;;;;;;;10.39;39.43;96118.00;4992742;28;20034;-76
2022/02/05 12:05:25;;;;;;;3.88;1.33;;;;;;;11.19;38.73;96120.53;4987024;28;20039;-75
2022/02/05 12:08:03;;;;;;;3.47;1.60;;;;;;;11.64;37.57;96115.66;4983798;28;20050;-74
2022/02/05 12:10:37;;;;;;;2.30;1.27;;;;;;;11.44;37.87;96116.41;4992353;28;20042;-73
2022/02/05 12:13:24;;;;;;;4.35;1.50;;;;;;;12.16;37.09;96116.50;4992353;28;20038;-74
2022/02/05 12:15:59;;;;;;;3.67;1.23;;;;;;;12.42;36.53;96103.31;4992529;28;20046;-72
2022/02/05 12:18:27;;;;;;;3.58;1.27;;;;;;;12.19;38.73;96104.66;4991343;28;20042;-73
2022/02/05 12:21:00;;;;;;;3.92;1.52;;;;;;;12.12;35.85;96104.91;4990491;28;20042;-73
2022/02/05 12:26:17;;;;;;;3.35;1.63;;;;;;;12.44;36.66;96101.19;4980782;28;20157;-73
2022/02/05 12:28:43;;;;;;;4.72;1.50;;;;;;;12.78;36.58;96100.59;4991447;28;20105;-75
2022/02/05 12:31:18;;;;;;;3.88;1.48;;;;;;;12.18;35.16;96103.84;4990902;28;20050;-73
2022/02/05 12:33:43;;;;;;;;;;;;;;;12.20;36.94;96101.75;4989422;28;20039;-72
2022/02/05 12:36:09;;;;;;;3.47;1.60;;;;;;;12.42;35.38;96098.03;4991460;28;19932;-72
2022/02/05 12:38:39;;;;;;;3.35;1.50;;;;;;;12.48;36.50;96094.31;5000019;28;20488;-74
2022/02/05 12:41:07;;;;;;;3.45;1.63;;;;;;;12.20;36.51;96101.75;5007895;28;20046;-73
2022/02/05 12:43:59;;;;;;;5.55;1.70;;;;;;;11.07;34.52;96096.25;4995719;28;20416;-73
2022/02/05 12:46:50;;;;;;;3.72;1.60;;;;;;;10.51;36.91;96094.91;4991006;28;20049;-72
2022/02/05 12:49:24;;;;;;;5.00;1.60;;;;;;;11.08;37.46;96095.19;4988873;28;20049;-73
2022/02/05 12:51:52;;;;;;;3.17;1.40;;;;;;;11.66;37.24;96097.72;4990550;28;20050;-74
2022/02/05 12:54:21;;;;;;;3.83;1.40;;;;;;;12.05;38.13;96093.81;4992962;28;20054;-72
2022/02/05 12:56:48;;;;;;;2.10;1.40;;;;;;;11.27;35.04;96085.75;4991673;28;20117;-72
2022/02/05 12:59:24;;;;;;;4.68;1.38;;;;;;;10.78;37.24;96086.09;4993568;28;20046;-73
2022/02/05 13:01:50;;;;;;;4.25;1.40;;;;;;;11.24;39.33;96086.28;4997755;28;20053;-73
2022/02/05 13:04:18;;;;;;;7.97;1.63;;;;;;;10.64;39.64;96091.03;4997776;28;20046;-73
2022/02/05 13:06:44;;;;;;;3.05;1.77;;;;;;;10.48;37.65;96084.88;4996919;28;20046;-73
2022/02/05 13:09:24;;;;;;;2.63;1.50;;;;;;;9.75;40.92;96088.00;4993541;28;20042;-73
2022/02/05 13:12:00;;;;;;;6.22;1.60;;;;;;;9.00;43.21;96075.41;4998225;28;20071;-70
2022/02/05 13:14:40;;;;;;;3.90;1.30;;;;;;;9.08;41.66;96074.22;4993937;28;20498;-71
2022/02/05 13:17:19;;;;;;;3.65;1.60;;;;;;;8.86;41.33;96076.81;4994371;28;20057;-73
2022/02/05 13:20:20;;;;;;;3.40;1.23;;;;;;;8.41;43.00;96075.16;4995885;28;20474;-72
2022/02/05 13:36:24;;;;;;;3.03;1.50;;;;;;;6.01;46.94;96061.63;4985576;28;20437;-73
2022/02/05 13:41:33;;;;;;;2.10;1.30;;;;;;;6.30;47.99;96061.75;4971366;28;20515;-73
2022/02/05 13:43:59;;;;;;;5.30;1.33;;;;;;;5.93;47.41;96064.53;4972158;28;20038;-73
2022/02/05 13:46:25;;;;;;;3.65;1.40;;;;;;;5.84;46.97;96071.13;4971380;28;20047;-73
2022/02/05 13:48:51;;;;;;;4.07;1.50;;;;;;;5.85;47.15;96070.09;4971956;28;20408;-73
2022/02/05 13:51:17;;;;;;;3.47;1.48;;;;;;;5.93;47.26;96066.34;4971558;28;20050;-73
2022/02/05 13:53:53;;;;;;;4.13;1.60;;;;;;;5.70;47.61;96071.34;4976723;28;20062;-73
2022/02/05 13:56:20;;;;;;;4.82;1.40;;;;;;;5.79;45.95;96073.59;4990576;28;20046;-73
2022/02/05 13:58:46;;;;;;;7.13;1.55;;;;;;;5.78;47.78;96078.03;4989930;28;20046;-73
2022/02/05 14:01:35;;;;;;;3.75;1.17;;;;;;;5.65;47.20;96073.81;4990676;28;20422;-73
2022/02/05 14:04:19;;;;;;;3.67;1.77;;;;;;;5.43;48.98;96081.38;4990633;28;20042;-73
2022/02/05 14:06:58;;;;;;;3.42;1.40;;;;;;;5.61;48.21;96083.09;4989565;28;20183;-73
2022/02/05 14:09:36;;;;;;;2.35;1.38;;;;;;;5.38;49.73;96073.38;4987217;28;20039;-73
2022/02/05 14:12:18;;;;;;;3.45;1.60;;;;;;;5.26;50.01;96075.16;4971130;28;20054;-73
2022/02/05 14:15:01;;;;;;;5.47;1.50;;;;;;;5.32;50.94;96080.28;4969625;28;20043;-73
2022/02/05 14:17:26;;;;;;;6.90;2.03;;;;;;;5.26;50.27;96078.56;4970792;28;20060;-74
2022/02/05 14:20:05;;;;;;;3.72;1.40;;;;;;;5.18;49.15;96095.31;4985320;28;20520;-73
2022/02/05 14:22:34;;;;;;;3.65;1.50;;;;;;;4.97;50.23;96088.78;4990464;28;20054;-73
2022/02/05 14:25:28;;;;;;;2.10;1.20;;;;;;;4.87;50.95;96093.72;4990121;28;20050;-73
2022/02/05 14:28:12;;;;;;;3.40;1.35;;;;;;;4.99;50.38;96091.94;4989682;28;20560;-73
2022/02/05 14:30:41;;;;;;;4.10;1.50;;;;;;;5.09;48.92;96093.25;4990297;28;20043;-73
2022/02/05 14:33:08;;;;;;;2.88;1.10;;;;;;;5.14;49.78;96093.38;4985451;28;20050;-73
2022/02/05 14:40:49;;;;;;;2.63;1.30;;;;;;;4.77;50.80;96077.75;4973420;28;20061;-73
2022/02/05 14:43:18;;;;;;;2.65;1.30;;;;;;;4.93;50.41;96081.56;4970177;28;20047;-73
2022/02/05 14:45:45;;;;;;;3.70;1.33;;;;;;;4.90;50.88;96077.63;4970254;28;20075;-73
2022/02/05 14:48:13;;;;;;;7.32;1.50;;;;;;;4.94;50.97;96073.56;4978064;28;20038;-73
2022/02/05 14:50:39;;;;;;;3.95;1.40;;;;;;;4.89;51.20;96065.59;4989869;28;20046;-73
2022/02/05 14:53:05;;;;;;;2.92;1.23;;;;;;;4.69;51.62;96069.22;4989186;28;20053;-73
2022/02/05 14:55:31;;;;;;;2.40;1.40;;;;;;;4.77;51.40;96067.31;4970259;28;20042;-73
2022/02/05 14:57:56;;;;;;;4.88;1.70;;;;;;;4.71;51.55;96069.00;4970510;28;20096;-74
2022/02/05 15:00:22;;;;;;;5.05;1.50;;;;;;;4.55;52.40;96059.94;4969083;28;20453;-73
2022/02/05 15:02:51;;;;;;;3.33;1.40;;;;;;;4.50;52.17;96057.22;4984743;28;20116;-74
2022/02/05 15:05:17;;;;;;;8.30;1.70;;;;;;;4.56;52.10;96056.34;4989562;28;20042;-73
2022/02/05 15:07:44;;;;;;;6.75;1.58;;;;;;;4.30;50.84;96053.00;4989814;28;20053;-73
2022/02/05 15:10:16;;;;;;;3.05;1.77;;;;;;;4.36;52.05;96063.56;4989170;28;20046;-73